Time;durP1;ratioP1;P1;durP2;ratioP2;P2;SDS_P1;SDS_P2;PMS_P1;PMS_P2;Temp;Humidity;BMP_temperature;BMP_pressure;BME280_temperature;BME280_humidity;BME280_pressure;Samples;Min_cycle;Max_cycle;Signal;HPM_P1;HPM_P2
2021/05/10 00:01:47;;;;;;;5.53;2.03;;;;;;;18.36;71.56;99424.19;4972149;28;20046;-65
2021/05/10 00:04:14;;;;;;;7.32;2.05;;;;;;;18.40;71.35;99420.22;4939419;28;20043;-64
2021/05/10 00:06:41;;;;;;;3.80;1.63;;;;;;;18.37;71.12;99425.78;4956270;28;20054;-64
2021/05/10 00:09:08;;;;;;;3.58;1.60;;;;;;;18.37;70.17;99426.56;4974209;28;20386;-67
2021/05/10 00:11:35;;;;;;;3.97;1.50;;;;;;;18.34;70.57;99423.78;4973221;28;20063;-65
2021/05/10 00:14:06;;;;;;;3.65;1.90;;;;;;;18.23;71.20;99422.97;4957143;28;20042;-65
2021/05/10 00:16:33;;;;;;;5.22;1.90;;;;;;;18.03;70.99;99414.16;4973579;28;20055;-64
2021/05/10 00:19:01;;;;;;;5.38;1.77;;;;;;;18.09;71.45;99409.00;4957084;28;20047;-65
2021/05/10 00:21:28;;;;;;;8.27;2.00;;;;;;;18.04;72.15;99418.56;4973167;28;20062;-64
2021/05/10 00:23:55;;;;;;;5.45;1.83;;;;;;;18.07;70.68;99412.19;4957070;28;20054;-67
2021/05/10 00:26:22;;;;;;;7.25;2.25;;;;;;;18.07;71.80;99416.94;4974283;28;20050;-66
2021/05/10 00:28:49;;;;;;;8.02;2.10;;;;;;;17.90;71.88;99407.38;4957206;28;20119;-68
2021/05/10 00:31:16;;;;;;;5.00;1.77;;;;;;;17.83;71.73;99424.06;4973764;28;20059;-63
2021/05/10 00:33:43;;;;;;;8.05;2.10;;;;;;;17.82;72.45;99439.16;4956259;28;20195;-64
2021/05/10 00:36:10;;;;;;;7.90;1.92;;;;;;;18.00;71.83;99434.47;4973604;28;20038;-65
2021/05/10 00:38:37;;;;;;;4.95;1.80;;;;;;;17.95;71.68;99444.00;4940390;28;20055;-64
2021/05/10 00:41:04;;;;;;;5.20;1.80;;;;;;;17.92;71.65;99460.72;4974007;28;20059;-65
2021/05/10 00:43:31;;;;;;;5.53;2.25;;;;;;;17.74;72.19;99476.53;4973853;28;20065;-65
2021/05/10 00:45:58;;;;;;;3.42;1.80;;;;;;;17.85;72.18;99477.41;4973448;28;20046;-64
2021/05/10 00:48:25;;;;;;;3.95;1.80;;;;;;;17.84;71.89;99486.94;4956215;28;20051;-67
2021/05/10 00:50:52;;;;;;;4.88;2.00;;;;;;;17.76;72.26;99486.13;4973311;28;20063;-66
2021/05/10 00:53:19;;;;;;;6.88;2.15;;;;;;;17.64;72.92;99480.84;4973794;28;20051;-65
2021/05/10 00:55:46;;;;;;;6.43;2.28;;;;;;;17.71;73.15;99482.91;4973125;28;20058;-65
2021/05/10 00:58:13;;;;;;;4.60;2.10;;;;;;;17.59;73.51;99474.88;4973129;28;20133;-66
2021/05/10 01:00:40;;;;;;;5.45;2.08;;;;;;;17.36;74.58;99477.91;4956358;28;20058;-66
2021/05/10 01:03:08;;;;;;;4.22;1.65;;;;;;;17.43;74.87;99463.22;4972863;28;20047;-64
2021/05/10 01:05:36;;;;;;;3.97;1.73;;;;;;;17.26;74.74;99452.81;4936374;29;20047;-63
2021/05/10 01:08:06;;;;;;;5.43;2.20;;;;;;;17.22;75.35;99429.72;4954046;29;20058;-63
2021/05/10 01:10:32;;;;;;;5.50;1.70;;;;;;;17.16;75.67;99412.56;4953203;29;20055;-66
2021/05/10 01:13:00;;;;;;;4.82;1.80;;;;;;;17.05;76.59;99397.00;4953667;29;20154;-65
2021/05/10 01:15:27;;;;;;;6.00;1.83;;;;;;;17.00;76.75;99403.72;4936719;29;20053;-64
2021/05/10 01:17:54;;;;;;;4.97;1.70;;;;;;;16.97;76.76;99448.22;4964138;28;20495;-68
2021/05/10 01:20:22;;;;;;;8.10;1.80;;;;;;;17.07;76.65;99484.47;4973276;28;20055;-65
2021/05/10 01:22:55;;;;;;;6.97;1.98;;;;;;;17.15;76.49;99493.66;4973235;28;20051;-65
2021/05/10 01:25:26;;;;;;;3.40;1.73;;;;;;;17.25;76.02;99473.44;4972160;28;20521;-65
2021/05/10 01:27:54;;;;;;;3.10;1.60;;;;;;;17.11;76.08;99460.25;4955024;28;20057;-65
2021/05/10 01:30:26;;;;;;;3.60;1.63;;;;;;;17.30;75.76;99487.81;4954948;28;20054;-64
2021/05/10 01:32:55;;;;;;;3.28;1.48;;;;;;;17.13;75.32;99494.06;4971745;28;20051;-67
2021/05/10 01:35:27;;;;;;;3.70;1.60;;;;;;;17.20;74.82;99499.66;4972846;28;20399;-64
2021/05/10 01:37:54;;;;;;;4.32;1.67;;;;;;;17.17;75.28;99492.09;4955020;28;20058;-68
2021/05/10 01:40:21;;;;;;;3.35;1.65;;;;;;;17.14;76.41;99492.06;4972493;28;20062;-65
2021/05/10 01:42:49;;;;;;;4.10;1.40;;;;;;;17.24;75.43;99492.16;4972583;28;20053;-67
2021/05/10 01:45:16;;;;;;;3.35;1.58;;;;;;;17.22;75.31;99500.09;4955587;28;20057;-67
2021/05/10 01:47:43;;;;;;;4.63;1.40;;;;;;;17.17;75.30;99514.38;4971631;28;20051;-65
2021/05/10 01:50:18;;;;;;;3.45;1.50;;;;;;;17.13;75.27;99518.28;4954779;28;20372;-66
2021/05/10 01:52:47;;;;;;;4.60;1.35;;;;;;;17.18;75.58;99513.16;4972413;28;20062;-67
2021/05/10 01:55:15;;;;;;;3.25;1.52;;;;;;;17.07;75.65;99505.94;4972208;28;20059;-68
2021/05/10 01:57:50;;;;;;;3.63;1.27;;;;;;;17.19;75.20;99484.13;4938496;28;20051;-66
2021/05/10 02:00:25;;;;;;;4.18;1.70;;;;;;;17.34;74.66;99488.63;4972042;28;20062;-69
2021/05/10 02:02:58;;;;;;;5.00;1.58;;;;;;;17.47;74.50;99506.63;4954746;28;20063;-66
2021/05/10 02:05:26;;;;;;;4.28;1.67;;;;;;;17.58;73.59;99524.22;4954622;28;20058;-68
2021/05/10 02:07:55;;;;;;;3.00;1.63;;;;;;;17.46;73.19;99527.31;4954841;28;20047;-65
2021/05/10 02:10:23;;;;;;;5.10;1.43;;;;;;;17.61;73.29;99550.47;4954213;28;20511;-67
2021/05/10 02:13:10;;;;;;;5.32;1.85;;;;;;;17.28;74.18;99548.63;4954817;28;20654;-68
2021/05/10 02:15:39;;;;;;;4.53;1.70;;;;;;;17.38;74.76;99547.13;4972348;28;20051;-65
2021/05/10 02:18:07;;;;;;;3.67;1.60;;;;;;;17.32;74.61;99555.03;4954612;28;20051;-66
2021/05/10 02:20:35;;;;;;;4.32;1.75;;;;;;;17.29;74.00;99541.88;4971795;28;20059;-64
2021/05/10 02:23:11;;;;;;;4.38;1.45;;;;;;;17.13;74.78;99558.06;4971691;28;20050;-68
2021/05/10 02:25:40;;;;;;;6.10;1.70;;;;;;;17.14;75.03;99551.28;4971532;28;20058;-66
2021/05/10 02:28:08;;;;;;;2.70;1.50;;;;;;;17.30;74.47;99556.59;4971649;28;20415;-66
2021/05/10 02:30:36;;;;;;;4.00;1.48;;;;;;;17.31;74.52;99549.84;4971992;28;20042;-65
2021/05/10 02:33:07;;;;;;;4.13;1.70;;;;;;;17.43;73.87;99536.41;4971674;28;20058;-66
2021/05/10 02:35:34;;;;;;;4.47;1.80;;;;;;;17.45;73.94;99536.81;4971554;28;20048;-64
2021/05/10 02:38:01;;;;;;;3.80;1.65;;;;;;;17.15;74.60;99560.44;4953813;28;20414;-65
2021/05/10 02:40:28;;;;;;;4.47;1.70;;;;;;;17.16;75.08;99557.28;4953857;28;20058;-67
2021/05/10 02:42:55;;;;;;;3.45;1.63;;;;;;;17.37;74.60;99560.22;4938539;28;20498;-65
2021/05/10 02:45:22;;;;;;;10.32;1.75;;;;;;;17.23;74.33;99568.47;4978172;28;20471;-64
2021/05/10 02:47:49;;;;;;;4.10;1.50;;;;;;;17.21;75.30;99564.47;4953979;28;20059;-66
2021/05/10 02:50:19;;;;;;;3.55;1.70;;;;;;;17.38;74.48;99574.94;4971057;28;20058;-64
2021/05/10 02:52:47;;;;;;;2.17;1.42;;;;;;;17.26;74.56;99587.16;4971506;28;20055;-67
2021/05/10 02:55:15;;;;;;;3.88;1.40;;;;;;;17.31;74.35;99575.66;4954388;28;20053;-67
2021/05/10 02:57:42;;;;;;;2.67;1.38;;;;;;;17.43;74.11;99577.38;4971491;28;20063;-68
2021/05/10 03:00:11;;;;;;;4.30;1.63;;;;;;;17.43;73.77;99577.38;4971073;28;20061;-70
2021/05/10 03:02:38;;;;;;;2.88;1.63;;;;;;;17.38;73.85;99584.06;4956422;28;20055;-67
2021/05/10 03:05:10;;;;;;;5.65;1.80;;;;;;;17.32;74.08;99568.94;4976194;28;20051;-65
2021/05/10 03:07:37;;;;;;;3.72;2.00;;;;;;;17.16;74.42;99567.59;4974735;28;20051;-64
2021/05/10 03:10:06;;;;;;;5.00;1.83;;;;;;;17.18;74.61;99582.75;4976115;28;20055;-66
2021/05/10 03:12:33;;;;;;;4.28;1.83;;;;;;;17.15;73.97;99580.72;4976076;28;20042;-64
2021/05/10 03:15:00;;;;;;;3.30;1.77;;;;;;;17.24;74.32;99584.00;4974911;28;20058;-63
2021/05/10 03:17:27;;;;;;;2.92;1.63;;;;;;;17.05;74.74;99583.41;4975337;28;20054;-62
2021/05/10 03:19:54;;;;;;;4.22;1.90;;;;;;;17.18;75.14;99587.50;4975093;28;20506;-66
2021/05/10 03:22:21;;;;;;;4.13;1.70;;;;;;;17.34;74.72;99585.25;4958130;28;20051;-65
2021/05/10 03:24:48;;;;;;;6.13;1.90;;;;;;;17.36;74.29;99602.38;4975231;28;20052;-65
2021/05/10 03:27:15;;;;;;;3.97;1.70;;;;;;;17.34;74.69;99613.09;4957889;28;20146;-65
2021/05/10 03:29:42;;;;;;;5.32;1.80;;;;;;;17.32;74.44;99616.25;4974825;28;20055;-66
2021/05/10 03:32:09;;;;;;;3.63;1.63;;;;;;;17.23;74.47;99629.69;4942006;28;20059;-68
2021/05/10 03:34:35;;;;;;;4.72;2.05;;;;;;;17.18;75.65;99630.03;4956746;28;20051;-66
2021/05/10 03:37:02;;;;;;;6.05;2.17;;;;;;;16.92;76.91;99632.97;4958114;28;20047;-66
2021/05/10 03:39:29;;;;;;;3.53;1.75;;;;;;;17.14;76.65;99632.00;4973729;28;20414;-65
2021/05/10 03:41:56;;;;;;;4.25;2.08;;;;;;;17.15;75.77;99649.50;4974493;28;20073;-68
2021/05/10 03:44:23;;;;;;;4.70;1.90;;;;;;;17.23;76.02;99660.31;4957572;28;20054;-66
2021/05/10 03:46:50;;;;;;;5.15;2.15;;;;;;;17.31;74.91;99658.41;4956883;28;20399;-69
2021/05/10 03:49:17;;;;;;;4.85;1.83;;;;;;;17.30;73.71;99670.69;4956566;28;20042;-69
2021/05/10 03:51:44;;;;;;;4.93;2.13;;;;;;;17.09;73.13;99668.50;4956041;28;20059;-66
2021/05/10 03:54:11;;;;;;;6.18;2.30;;;;;;;17.40;72.30;99689.50;4974467;28;20549;-64
2021/05/10 03:56:37;;;;;;;5.63;2.10;;;;;;;17.14;70.16;99687.63;4974483;28;20046;-64
2021/05/10 03:59:04;;;;;;;4.35;1.80;;;;;;;17.35;69.89;99682.28;4956503;28;20051;-66
2021/05/10 04:01:31;;;;;;;5.30;1.88;;;;;;;17.33;71.08;99669.94;4974257;28;20059;-65
2021/05/10 04:04:19;;;;;;;7.00;2.42;;;;;;;17.01;69.78;99683.53;4956366;28;20065;-65
2021/05/10 04:14:51;;;;;;;7.10;1.83;;;;;;;17.02;68.86;99714.94;4913539;29;20064;-66
2021/05/10 04:17:18;;;;;;;9.20;2.00;;;;;;;17.25;69.74;99730.31;4914188;29;20557;-66
2021/05/10 04:19:45;;;;;;;6.72;2.17;;;;;;;16.89;68.41;99751.34;4910159;29;20057;-65
2021/05/10 04:22:12;;;;;;;5.85;2.05;;;;;;;16.95;68.42;99746.25;4895423;29;20049;-64
2021/05/10 04:24:39;;;;;;;9.07;2.00;;;;;;;16.85;66.03;99750.53;4910918;29;20056;-65
2021/05/10 04:27:07;;;;;;;12.27;2.50;;;;;;;16.40;67.26;99761.00;4895160;29;20060;-65
2021/05/10 04:29:34;;;;;;;8.18;1.92;;;;;;;16.76;67.50;99761.13;4910616;29;20052;-64
2021/05/10 04:32:01;;;;;;;9.70;2.17;;;;;;;16.88;68.77;99753.72;4895032;29;20048;-65
2021/05/10 04:34:28;;;;;;;8.05;2.15;;;;;;;16.85;68.71;99752.50;4895072;29;20057;-64
2021/05/10 04:36:55;;;;;;;9.85;2.30;;;;;;;16.70;68.65;99753.50;4895155;29;20365;-67
2021/05/10 04:39:21;;;;;;;9.68;2.25;;;;;;;16.84;67.86;99751.69;4893991;29;20060;-65
2021/05/10 04:41:48;;;;;;;8.70;2.60;;;;;;;16.83;67.47;99754.84;4895033;29;20169;-64
2021/05/10 04:44:15;;;;;;;8.57;2.33;;;;;;;16.27;67.26;99762.38;4895025;29;20418;-64
2021/05/10 04:46:42;;;;;;;9.13;2.28;;;;;;;16.47;69.03;99763.91;4894781;29;20052;-64
2021/05/10 04:49:09;;;;;;;12.32;2.45;;;;;;;16.29;67.35;99765.59;4907722;29;20420;-67
2021/05/10 04:51:36;;;;;;;10.80;2.45;;;;;;;15.84;67.15;99774.81;4916662;28;20043;-65
2021/05/10 04:54:03;;;;;;;10.68;2.53;;;;;;;16.09;68.76;99780.75;4972689;28;20510;-63
2021/05/10 04:56:30;;;;;;;11.25;2.13;;;;;;;16.41;68.58;99782.03;4973084;28;20062;-65
2021/05/10 04:58:57;;;;;;;15.05;2.70;;;;;;;16.42;66.92;99792.78;4955803;28;20069;-68
2021/05/10 05:01:24;;;;;;;9.15;2.28;;;;;;;16.34;67.30;99804.97;4955647;28;20051;-67
2021/05/10 05:03:51;;;;;;;13.25;2.40;;;;;;;16.71;68.63;99802.38;4973978;28;20050;-66
2021/05/10 05:06:18;;;;;;;9.85;2.42;;;;;;;16.56;64.95;99804.13;4972904;28;20055;-66
2021/05/10 05:08:46;;;;;;;11.13;2.08;;;;;;;16.75;67.19;99801.22;4956109;28;20070;-65
2021/05/10 05:11:13;;;;;;;10.68;2.20;;;;;;;16.73;65.29;99800.84;4973376;28;20053;-67
2021/05/10 05:13:39;;;;;;;15.23;3.47;;;;;;;16.56;65.55;99795.78;4973079;28;20081;-67
2021/05/10 05:16:06;;;;;;;10.63;2.20;;;;;;;16.47;66.12;99786.16;4972731;28;20051;-66
2021/05/10 05:18:33;;;;;;;11.48;2.38;;;;;;;16.12;67.99;99789.16;4972268;28;20043;-65
2021/05/10 05:21:00;;;;;;;11.10;2.72;;;;;;;16.66;67.87;99786.00;4972605;28;20074;-68
2021/05/10 05:23:28;;;;;;;14.15;3.03;;;;;;;16.25;67.73;99798.09;4955545;28;20521;-68
2021/05/10 05:25:59;;;;;;;8.05;2.33;;;;;;;16.35;67.46;99803.78;4970902;28;20414;-67
2021/05/10 05:28:27;;;;;;;10.73;3.15;;;;;;;16.17;67.15;99815.81;4972472;28;20054;-69
2021/05/10 05:30:56;;;;;;;14.82;3.05;;;;;;;15.90;68.81;99825.28;4955388;28;20046;-69
2021/05/10 05:33:24;;;;;;;11.65;2.35;;;;;;;16.25;68.10;99832.22;4971802;28;20526;-67
2021/05/10 05:35:52;;;;;;;17.35;2.92;;;;;;;16.03;66.48;99832.25;4972558;28;20399;-69
2021/05/10 05:38:19;;;;;;;17.77;3.00;;;;;;;16.28;67.69;99845.41;4972565;28;20081;-66
2021/05/10 05:40:47;;;;;;;11.80;2.42;;;;;;;16.29;66.31;99857.28;4938913;28;20607;-68
2021/05/10 05:43:14;;;;;;;17.17;2.95;;;;;;;15.92;67.59;99867.38;4971812;28;20055;-69
2021/05/10 05:45:42;;;;;;;14.88;3.70;;;;;;;15.97;67.84;99878.97;4972191;28;20074;-68
2021/05/10 05:48:11;;;;;;;14.77;2.70;;;;;;;15.90;67.70;99887.16;4972145;28;20058;-69
2021/05/10 05:50:39;;;;;;;14.23;3.07;;;;;;;16.08;67.53;99890.28;4972048;28;20054;-70
2021/05/10 05:53:06;;;;;;;13.32;2.63;;;;;;;16.37;68.39;99897.94;4972070;28;20314;-65
2021/05/10 05:55:33;;;;;;;14.60;2.83;;;;;;;16.08;68.34;99902.19;4971869;28;20380;-66
2021/05/10 05:58:01;;;;;;;13.85;3.03;;;;;;;16.18;67.99;99906.34;4972179;28;20479;-67
2021/05/10 06:00:29;;;;;;;14.00;3.80;;;;;;;16.36;67.92;99913.81;4972456;28;20077;-64
2021/05/10 06:02:56;;;;;;;11.25;3.15;;;;;;;16.04;67.72;99919.97;4971677;28;20471;-63
2021/05/10 06:05:23;;;;;;;12.82;3.67;;;;;;;16.32;69.13;99926.84;4954268;28;20366;-65
2021/05/10 06:07:51;;;;;;;13.43;3.22;;;;;;;16.28;69.11;99933.50;4971434;28;20062;-63
2021/05/10 06:10:26;;;;;;;10.13;2.60;;;;;;;16.53;69.08;99937.53;4954845;28;20047;-67
2021/05/10 06:12:53;;;;;;;9.63;2.85;;;;;;;16.40;66.74;99942.47;4960465;28;20422;-67
2021/05/10 06:15:22;;;;;;;13.10;2.95;;;;;;;16.60;67.98;99946.81;4935546;29;20047;-68
2021/05/10 06:17:49;;;;;;;17.70;6.63;;;;;;;16.53;66.83;99941.13;4940275;28;20051;-70
2021/05/10 06:20:17;;;;;;;15.00;3.85;;;;;;;16.58;66.53;99953.94;4972818;28;20051;-68
2021/05/10 06:22:45;;;;;;;16.40;3.42;;;;;;;16.34;65.96;99954.25;4955364;28;20059;-65
2021/05/10 06:25:13;;;;;;;14.65;3.10;;;;;;;16.55;68.69;99963.81;4971936;28;20042;-71
2021/05/10 06:27:41;;;;;;;15.05;2.53;;;;;;;16.72;67.57;99968.84;4971590;28;20402;-65
2021/05/10 06:30:10;;;;;;;8.75;2.22;;;;;;;16.85;66.71;99975.03;4954279;28;20436;-68
2021/05/10 06:32:38;;;;;;;11.57;3.80;;;;;;;16.89;69.96;99973.09;4970936;28;20059;-66
2021/05/10 06:35:06;;;;;;;14.60;2.90;;;;;;;16.61;66.83;99976.22;4971623;28;20391;-69
2021/05/10 06:37:34;;;;;;;15.98;3.55;;;;;;;16.91;72.71;99992.22;4970436;28;20059;-68
2021/05/10 06:40:01;;;;;;;12.52;2.67;;;;;;;17.19;76.31;99984.31;4954801;28;20051;-66
2021/05/10 06:42:28;;;;;;;16.65;3.15;;;;;;;16.87;71.36;99997.72;4953817;28;20046;-66
2021/05/10 06:44:57;;;;;;;21.73;3.70;;;;;;;17.01;75.12;100000.72;4971697;28;20058;-67
2021/05/10 06:47:26;;;;;;;13.18;3.10;;;;;;;16.76;69.51;100003.09;4970878;28;20051;-63
2021/05/10 06:49:53;;;;;;;15.30;3.00;;;;;;;16.88;72.02;99992.97;4945475;28;20063;-66
2021/05/10 06:52:20;;;;;;;15.18;4.53;;;;;;;17.05;70.67;99992.44;4970216;28;20069;-69
2021/05/10 06:54:47;;;;;;;21.45;4.18;;;;;;;16.99;68.36;99996.69;4971195;28;20380;-66
2021/05/10 06:57:14;;;;;;;14.32;3.53;;;;;;;17.09;69.80;99996.03;4936944;28;20042;-66
2021/05/10 06:59:42;;;;;;;16.15;3.50;;;;;;;17.21;69.58;100001.44;4969914;28;20479;-69
2021/05/10 07:02:09;;;;;;;12.38;2.60;;;;;;;17.06;67.25;100014.31;4948783;28;20055;-71
2021/05/10 07:04:36;;;;;;;17.85;4.25;;;;;;;17.04;66.43;100010.28;4951322;28;20050;-72
2021/05/10 07:07:03;;;;;;;18.63;4.60;;;;;;;17.10;65.04;100015.19;4970444;28;20483;-70
2021/05/10 07:09:30;;;;;;;17.83;5.53;;;;;;;17.28;66.91;100016.22;4970709;28;20058;-65
2021/05/10 07:11:57;;;;;;;17.25;3.25;;;;;;;17.59;65.02;100031.84;4970557;28;20157;-62
2021/05/10 07:14:24;;;;;;;21.13;3.50;;;;;;;17.63;66.47;100032.69;4967865;28;20062;-67
2021/05/10 07:16:51;;;;;;;14.13;3.40;;;;;;;18.13;66.59;100025.78;4967465;28;20050;-68
2021/05/10 07:19:19;;;;;;;15.38;2.72;;;;;;;18.45;60.92;100035.31;4967648;28;20057;-69
2021/05/10 07:21:47;;;;;;;12.55;2.58;;;;;;;18.56;57.88;100044.59;4958135;28;20047;-69
2021/05/10 07:24:14;;;;;;;13.55;3.33;;;;;;;17.78;59.20;100046.41;4967512;28;20561;-66
2021/05/10 07:26:41;;;;;;;13.70;2.65;;;;;;;17.93;59.27;100053.81;4965497;28;20062;-67
2021/05/10 07:29:08;;;;;;;13.75;3.35;;;;;;;17.87;59.26;100041.38;4965143;28;20054;-69
2021/05/10 07:31:35;;;;;;;16.08;3.05;;;;;;;17.70;59.39;100041.94;4965981;28;20499;-69
2021/05/10 07:34:03;;;;;;;17.98;2.80;;;;;;;17.96;59.78;100044.69;4965833;28;20070;-65
2021/05/10 07:36:31;;;;;;;17.95;2.97;;;;;;;17.88;59.03;100039.41;4955915;28;20440;-68
2021/05/10 07:38:58;;;;;;;15.90;2.67;;;;;;;17.86;59.02;100053.72;4965110;28;20055;-70
2021/05/10 07:41:25;;;;;;;12.43;2.58;;;;;;;17.63;59.34;100049.38;4966189;28;20070;-67
2021/05/10 07:43:52;;;;;;;11.05;2.60;;;;;;;17.57;58.72;100048.91;4965784;28;20069;-67
2021/05/10 07:46:19;;;;;;;14.18;2.75;;;;;;;17.56;59.23;100049.28;4965104;28;20046;-68
2021/05/10 07:48:47;;;;;;;15.38;2.65;;;;;;;17.39;59.33;100044.22;4964877;28;20051;-69
2021/05/10 07:51:15;;;;;;;12.98;3.65;;;;;;;17.36;59.21;100051.38;4958978;28;20522;-67
2021/05/10 07:53:42;;;;;;;14.27;3.00;;;;;;;17.52;59.05;100054.03;4969701;28;20046;-69
2021/05/10 07:56:09;;;;;;;16.55;3.50;;;;;;;17.81;58.71;100058.81;4969215;28;20066;-67
2021/05/10 07:58:39;;;;;;;10.40;2.70;;;;;;;17.86;58.32;100061.25;4957258;28;20043;-68
2021/05/10 08:01:06;;;;;;;;;;;;;;;17.88;58.25;100058.91;4969583;28;20047;-68
2021/05/10 08:03:36;;;;;;;19.13;3.30;;;;;;;17.72;58.57;100063.84;4970521;28;20266;-71
2021/05/10 08:06:03;;;;;;;14.45;3.05;;;;;;;17.90;57.80;100070.47;4957541;28;20050;-69
2021/05/10 08:08:30;;;;;;;13.82;3.05;;;;;;;18.01;57.96;100071.41;4969673;28;20051;-70
2021/05/10 08:11:01;;;;;;;11.80;2.10;;;;;;;18.31;56.93;100071.38;4969075;28;20043;-69
2021/05/10 08:13:28;;;;;;;13.35;2.88;;;;;;;18.17;56.92;100066.44;4969697;28;20061;-70
2021/05/10 08:15:55;;;;;;;12.27;2.13;;;;;;;18.25;56.16;100070.13;4970644;28;20062;-70
2021/05/10 08:18:22;;;;;;;12.55;2.22;;;;;;;18.36;55.87;100076.63;4958729;28;20061;-68
2021/05/10 08:20:49;;;;;;;11.85;2.78;;;;;;;17.86;56.17;100075.19;4968153;28;20055;-68
2021/05/10 08:23:19;;;;;;;15.23;2.75;;;;;;;17.87;57.27;100079.56;4969993;28;20050;-68
2021/05/10 08:25:48;;;;;;;13.60;2.40;;;;;;;18.07;55.13;100078.25;4968208;28;20047;-68
2021/05/10 08:28:15;;;;;;;11.20;2.85;;;;;;;18.10;55.72;100082.28;4968835;28;20058;-69
2021/05/10 08:30:41;;;;;;;14.90;2.67;;;;;;;18.30;54.93;100066.97;4970299;28;20506;-69
2021/05/10 08:33:08;;;;;;;13.55;2.50;;;;;;;18.52;53.66;100066.88;4970445;28;20043;-70
2021/05/10 08:35:35;;;;;;;12.60;2.30;;;;;;;18.35;53.75;100064.66;4969716;28;20055;-67
2021/05/10 08:38:03;;;;;;;13.85;2.20;;;;;;;18.14;53.98;100075.56;4969788;28;20661;-68
2021/05/10 08:40:30;;;;;;;17.25;2.67;;;;;;;18.24;54.20;100080.44;4969502;28;20057;-69
2021/05/10 08:42:58;;;;;;;12.93;2.95;;;;;;;18.20;53.48;100090.75;4944420;28;20058;-69
2021/05/10 08:45:27;;;;;;;15.00;2.63;;;;;;;18.46;53.27;100084.34;4970516;28;20046;-70
2021/05/10 08:48:00;;;;;;;15.57;2.50;;;;;;;18.54;52.49;100086.00;4960507;28;20054;-72
2021/05/10 08:50:28;;;;;;;14.35;2.55;;;;;;;18.50;52.65;100087.94;4970641;28;20299;-73
2021/05/10 08:52:55;;;;;;;9.38;2.42;;;;;;;18.69;52.84;100098.94;4969580;28;20051;-71
2021/05/10 08:55:22;;;;;;;10.07;2.28;;;;;;;18.77;53.29;100107.00;4943020;28;20050;-70
2021/05/10 08:57:49;;;;;;;11.95;2.03;;;;;;;18.68;52.44;100105.69;4968844;28;20070;-71
2021/05/10 09:00:17;;;;;;;15.15;2.50;;;;;;;18.09;54.63;100111.31;4967674;28;20047;-69
2021/05/10 09:02:44;;;;;;;12.35;2.30;;;;;;;18.07;55.13;100122.84;4968839;28;20055;-67
2021/05/10 09:05:18;;;;;;;16.27;3.38;;;;;;;17.53;56.65;100106.56;4971289;28;20138;-67
2021/05/10 09:08:04;;;;;;;16.35;2.35;;;;;;;17.07;59.08;100124.44;4959437;28;20062;-68
2021/05/10 09:10:31;;;;;;;14.60;2.40;;;;;;;17.54;58.62;100122.06;4969253;28;20074;-69
2021/05/10 09:12:58;;;;;;;12.82;2.67;;;;;;;17.26;58.88;100126.38;4969478;28;20059;-69
2021/05/10 09:15:33;;;;;;;13.73;2.80;;;;;;;17.48;59.15;100129.16;4969161;28;20050;-66
2021/05/10 09:18:08;;;;;;;15.55;2.58;;;;;;;17.55;58.26;100122.88;4969696;28;20395;-67
2021/05/10 09:20:38;;;;;;;13.10;2.72;;;;;;;17.89;57.11;100121.78;4968904;28;20047;-66
2021/05/10 09:23:14;;;;;;;11.93;2.97;;;;;;;18.37;56.69;100123.66;4969444;28;20238;-68
2021/05/10 09:25:43;;;;;;;14.43;2.85;;;;;;;18.49;54.38;100126.22;4959245;28;20047;-68
2021/05/10 09:28:10;;;;;;;15.57;2.95;;;;;;;18.18;54.46;100128.56;4968587;28;20514;-70
2021/05/10 09:30:40;;;;;;;11.68;2.70;;;;;;;18.25;55.60;100128.66;4958675;28;20411;-70
2021/05/10 09:33:21;;;;;;;11.07;2.90;;;;;;;17.96;54.78;100133.84;4959656;28;20047;-67
2021/05/10 09:35:57;;;;;;;12.43;2.30;;;;;;;18.16;55.61;100128.94;4969063;28;20287;-67
2021/05/10 09:38:26;;;;;;;20.85;3.00;;;;;;;18.16;54.03;100117.00;4967323;28;20062;-69
2021/05/10 09:40:58;;;;;;;11.95;2.28;;;;;;;18.22;54.69;100138.56;4956878;28;20057;-68
2021/05/10 09:43:27;;;;;;;11.07;2.50;;;;;;;18.42;53.94;100133.69;4953087;28;20054;-71
2021/05/10 09:45:57;;;;;;;10.20;2.30;;;;;;;18.38;52.81;100125.25;4968640;28;20050;-75
2021/05/10 09:48:27;;;;;;;10.43;2.00;;;;;;;18.56;50.67;100133.84;4954612;28;20049;-72
2021/05/10 09:51:01;;;;;;;9.90;2.20;;;;;;;18.55;50.77;100141.41;4954975;28;20055;-69
2021/05/10 09:53:44;;;;;;;15.05;2.75;;;;;;;18.69;51.13;100132.41;4967346;28;20526;-66
2021/05/10 09:56:19;;;;;;;7.75;2.60;;;;;;;18.58;49.47;100134.28;4967548;28;20046;-67
2021/05/10 09:58:49;;;;;;;7.95;1.98;;;;;;;18.56;48.38;100136.63;4966837;28;20527;-66
2021/05/10 10:01:20;;;;;;;13.05;2.47;;;;;;;18.85;49.43;100132.97;4957389;28;20495;-67
2021/05/10 10:03:49;;;;;;;13.13;2.03;;;;;;;18.70;48.54;100150.75;4967227;28;20055;-65
2021/05/10 10:06:18;;;;;;;11.65;3.13;;;;;;;19.13;48.33;100143.63;4957452;28;20059;-70
2021/05/10 10:08:49;;;;;;;15.45;4.88;;;;;;;19.20;47.23;100141.69;4967012;28;20049;-72
2021/05/10 10:11:22;;;;;;;13.52;2.72;;;;;;;19.47;47.91;100150.75;4965444;28;20043;-68
2021/05/10 10:13:50;;;;;;;12.20;2.47;;;;;;;19.25;46.39;100146.94;4967388;28;20145;-68
2021/05/10 10:16:19;;;;;;;9.23;2.13;;;;;;;19.42;49.23;100157.47;4970442;28;20529;-70
2021/05/10 10:18:48;;;;;;;10.57;2.67;;;;;;;19.56;48.17;100151.22;4955134;28;20050;-65
2021/05/10 10:21:17;;;;;;;12.43;2.90;;;;;;;19.69;46.70;100149.72;4969122;28;20536;-66
2021/05/10 10:23:53;;;;;;;10.25;2.55;;;;;;;19.59;46.13;100159.63;4967889;28;20065;-63
2021/05/10 10:26:40;;;;;;;9.30;2.45;;;;;;;19.36;48.09;100150.66;4968343;28;20077;-64
2021/05/10 10:29:10;;;;;;;11.90;2.85;;;;;;;19.65;47.02;100157.28;4955778;28;20055;-63
2021/05/10 10:31:45;;;;;;;14.93;3.60;;;;;;;19.81;45.94;100149.41;4938593;28;20042;-66
2021/05/10 10:34:25;;;;;;;13.43;2.30;;;;;;;19.87;45.03;100145.06;4967745;28;20058;-65
2021/05/10 10:36:55;;;;;;;10.90;2.80;;;;;;;20.05;45.53;100166.34;4957764;28;20051;-65
2021/05/10 10:39:25;;;;;;;11.63;3.13;;;;;;;20.41;44.41;100155.38;4968618;28;20050;-66
2021/05/10 10:42:12;;;;;;;9.40;2.10;;;;;;;20.22;43.10;100150.09;4959375;28;20050;-69
2021/05/10 10:44:52;;;;;;;10.10;2.55;;;;;;;20.42;43.72;100149.38;4957699;28;20545;-63
2021/05/10 10:47:44;;;;;;;9.25;2.40;;;;;;;20.50;42.91;100151.03;4968093;28;20065;-64
2021/05/10 10:50:17;;;;;;;8.57;2.22;;;;;;;20.49;42.14;100157.81;4941251;28;20055;-69
2021/05/10 10:53:11;;;;;;;11.98;2.38;;;;;;;20.60;43.15;100155.88;4967466;28;20058;-66
2021/05/10 10:55:40;;;;;;;10.45;2.40;;;;;;;20.72;42.24;100140.69;4956962;28;20304;-67
2021/05/10 10:58:25;;;;;;;7.20;1.43;;;;;;;20.65;40.70;100151.88;4953740;28;20043;-66
2021/05/10 11:01:12;;;;;;;10.50;2.50;;;;;;;20.43;40.58;100147.41;4966701;28;20464;-67
2021/05/10 11:03:40;;;;;;;9.38;2.20;;;;;;;20.28;41.12;100159.69;4955869;28;20050;-65
2021/05/10 11:06:08;;;;;;;8.88;1.77;;;;;;;20.57;41.15;100148.25;4967309;28;20039;-65
2021/05/10 11:08:49;;;;;;;12.45;2.75;;;;;;;20.40;41.71;100156.59;4965898;28;20372;-68
2021/05/10 11:11:32;;;;;;;10.35;2.33;;;;;;;20.53;42.03;100161.44;4966953;28;20360;-66
2021/05/10 11:14:00;;;;;;;12.55;3.45;;;;;;;20.42;42.42;100142.97;4967099;28;20054;-69
2021/05/10 11:16:50;;;;;;;12.63;3.33;;;;;;;20.06;43.19;100156.78;4957729;28;20047;-69
2021/05/10 11:19:28;;;;;;;14.18;2.95;;;;;;;19.38;44.29;100167.03;4965937;28;20046;-66
2021/05/10 11:21:55;;;;;;;14.27;2.95;;;;;;;19.57;44.63;100170.41;4966503;28;20414;-67
2021/05/10 11:24:28;;;;;;;10.02;2.30;;;;;;;19.52;44.64;100167.16;4943082;28;20050;-69
2021/05/10 11:26:57;;;;;;;11.73;2.50;;;;;;;19.58;45.26;100163.59;4969465;28;20062;-66
2021/05/10 11:29:24;;;;;;;10.70;2.50;;;;;;;20.13;45.22;100158.81;4959956;28;20047;-70
2021/05/10 11:31:59;;;;;;;11.32;2.25;;;;;;;20.20;44.10;100166.44;4960909;28;20053;-68
2021/05/10 11:34:33;;;;;;;7.68;2.60;;;;;;;20.42;43.40;100162.56;4968921;28;20058;-65
2021/05/10 11:37:00;;;;;;;14.95;2.80;;;;;;;20.74;42.34;100153.13;4970813;28;20070;-69
2021/05/10 11:39:32;;;;;;;12.77;1.85;;;;;;;20.67;43.07;100153.09;4959498;28;20050;-66
2021/05/10 11:42:09;;;;;;;8.75;2.75;;;;;;;21.03;42.08;100157.59;4970766;28;20073;-67
2021/05/10 11:44:40;;;;;;;10.73;2.00;;;;;;;20.31;41.75;100158.94;4969904;28;20046;-67